sensor_id;sensor_type;location;lat;lon;timestamp;P1;P2;P0
76784;PMS7003;66893;44.316;0.092;2023-11-22T00:01:02;25.75;23.25;15.00
76784;PMS7003;66893;44.316;0.092;2023-11-22T00:03:28;23.50;20.25;12.25
76784;PMS7003;66893;44.316;0.092;2023-11-22T00:05:54;25.25;24.25;18.25
76784;PMS7003;66893;44.316;0.092;2023-11-22T00:08:19;27.50;27.00;17.50
76784;PMS7003;66893;44.316;0.092;2023-11-22T00:10:45;28.25;24.50;17.75
76784;PMS7003;66893;44.316;0.092;2023-11-22T00:13:10;23.00;22.25;17.00
76784;PMS7003;66893;44.316;0.092;2023-11-22T00:15:36;29.50;24.50;15.75
76784;PMS7003;66893;44.316;0.092;2023-11-22T00:18:02;23.00;19.25;14.25
76784;PMS7003;66893;44.316;0.092;2023-11-22T00:20:28;25.50;22.75;15.25
76784;PMS7003;66893;44.316;0.092;2023-11-22T00:22:55;30.00;25.00;17.25
76784;PMS7003;66893;44.316;0.092;2023-11-22T00:25:20;20.00;20.00;16.00
76784;PMS7003;66893;44.316;0.092;2023-11-22T00:27:46;30.00;25.25;18.75
76784;PMS7003;66893;44.316;0.092;2023-11-22T00:30:12;26.25;23.75;15.50
76784;PMS7003;66893;44.316;0.092;2023-11-22T00:32:38;26.00;24.00;17.75
76784;PMS7003;66893;44.316;0.092;2023-11-22T00:35:05;25.50;23.00;16.75
76784;PMS7003;66893;44.316;0.092;2023-11-22T00:37:32;25.75;23.25;16.50
76784;PMS7003;66893;44.316;0.092;2023-11-22T00:39:59;31.00;28.00;17.75
76784;PMS7003;66893;44.316;0.092;2023-11-22T00:42:25;23.75;20.50;16.75
76784;PMS7003;66893;44.316;0.092;2023-11-22T00:44:52;25.75;25.50;17.00
76784;PMS7003;66893;44.316;0.092;2023-11-22T00:47:18;20.25;19.50;13.25
76784;PMS7003;66893;44.316;0.092;2023-11-22T00:49:44;22.25;20.50;15.25
76784;PMS7003;66893;44.316;0.092;2023-11-22T00:52:09;25.25;20.50;14.25
76784;PMS7003;66893;44.316;0.092;2023-11-22T00:54:35;20.50;16.25;12.00
76784;PMS7003;66893;44.316;0.092;2023-11-22T00:57:00;21.50;18.25;12.50
76784;PMS7003;66893;44.316;0.092;2023-11-22T00:59:26;24.00;19.50;13.75
76784;PMS7003;66893;44.316;0.092;2023-11-22T01:01:51;15.50;12.75;9.75
76784;PMS7003;66893;44.316;0.092;2023-11-22T01:04:17;18.50;15.50;10.50
76784;PMS7003;66893;44.316;0.092;2023-11-22T01:06:42;14.00;12.00;9.50
76784;PMS7003;66893;44.316;0.092;2023-11-22T01:09:08;16.50;13.00;9.00
76784;PMS7003;66893;44.316;0.092;2023-11-22T01:11:38;15.00;13.00;10.50
76784;PMS7003;66893;44.316;0.092;2023-11-22T01:14:04;11.00;10.25;8.00
76784;PMS7003;66893;44.316;0.092;2023-11-22T01:16:30;9.75;9.75;7.75
76784;PMS7003;66893;44.316;0.092;2023-11-22T01:18:55;7.00;6.75;5.25
76784;PMS7003;66893;44.316;0.092;2023-11-22T01:21:21;9.75;9.00;6.50
76784;PMS7003;66893;44.316;0.092;2023-11-22T01:23:46;10.00;10.00;7.00
76784;PMS7003;66893;44.316;0.092;2023-11-22T01:26:12;9.00;9.00;7.00
76784;PMS7003;66893;44.316;0.092;2023-11-22T01:28:37;8.75;8.00;6.50
76784;PMS7003;66893;44.316;0.092;2023-11-22T01:31:05;13.75;12.00;9.00
76784;PMS7003;66893;44.316;0.092;2023-11-22T01:33:30;9.00;9.00;7.00
76784;PMS7003;66893;44.316;0.092;2023-11-22T01:35:57;11.00;9.50;7.75
76784;PMS7003;66893;44.316;0.092;2023-11-22T01:38:22;9.75;9.75;8.00
76784;PMS7003;66893;44.316;0.092;2023-11-22T01:40:51;18.25;16.00;11.25
76784;PMS7003;66893;44.316;0.092;2023-11-22T01:43:17;16.75;16.25;12.25
76784;PMS7003;66893;44.316;0.092;2023-11-22T01:45:43;20.25;17.50;11.50
76784;PMS7003;66893;44.316;0.092;2023-11-22T01:48:09;22.25;19.50;12.75
76784;PMS7003;66893;44.316;0.092;2023-11-22T01:50:39;15.25;15.00;11.50
76784;PMS7003;66893;44.316;0.092;2023-11-22T01:53:07;18.25;15.00;11.75
76784;PMS7003;66893;44.316;0.092;2023-11-22T01:55:35;14.00;12.50;9.00
76784;PMS7003;66893;44.316;0.092;2023-11-22T01:58:01;11.75;11.25;8.25
76784;PMS7003;66893;44.316;0.092;2023-11-22T02:00:31;11.00;9.75;8.00
76784;PMS7003;66893;44.316;0.092;2023-11-22T02:03:01;12.50;11.00;8.25
76784;PMS7003;66893;44.316;0.092;2023-11-22T02:05:27;11.75;11.75;8.50
76784;PMS7003;66893;44.316;0.092;2023-11-22T02:07:52;10.00;10.00;7.25
76784;PMS7003;66893;44.316;0.092;2023-11-22T02:10:18;13.25;9.75;8.00
76784;PMS7003;66893;44.316;0.092;2023-11-22T02:12:44;9.00;7.75;6.75
76784;PMS7003;66893;44.316;0.092;2023-11-22T02:15:09;9.25;9.00;6.75
76784;PMS7003;66893;44.316;0.092;2023-11-22T02:17:36;8.00;7.00;5.00
76784;PMS7003;66893;44.316;0.092;2023-11-22T02:20:02;8.75;7.75;6.00
76784;PMS7003;66893;44.316;0.092;2023-11-22T02:22:31;10.00;9.25;6.25
76784;PMS7003;66893;44.316;0.092;2023-11-22T02:24:56;10.50;10.50;8.25
76784;PMS7003;66893;44.316;0.092;2023-11-22T02:27:22;11.75;10.25;7.75
76784;PMS7003;66893;44.316;0.092;2023-11-22T02:29:47;11.25;10.25;8.00
76784;PMS7003;66893;44.316;0.092;2023-11-22T02:32:13;9.25;9.25;7.25
76784;PMS7003;66893;44.316;0.092;2023-11-22T02:34:38;9.50;8.75;7.25
76784;PMS7003;66893;44.316;0.092;2023-11-22T02:37:04;11.75;10.50;6.75
76784;PMS7003;66893;44.316;0.092;2023-11-22T02:39:35;15.00;12.00;9.25
76784;PMS7003;66893;44.316;0.092;2023-11-22T02:42:09;12.25;10.25;8.50
76784;PMS7003;66893;44.316;0.092;2023-11-22T02:44:34;17.00;14.75;11.25
76784;PMS7003;66893;44.316;0.092;2023-11-22T02:47:00;10.75;8.75;7.00
76784;PMS7003;66893;44.316;0.092;2023-11-22T02:49:25;10.75;10.25;7.50
76784;PMS7003;66893;44.316;0.092;2023-11-22T02:51:51;10.75;9.50;7.50
76784;PMS7003;66893;44.316;0.092;2023-11-22T02:54:16;11.75;9.25;8.00
76784;PMS7003;66893;44.316;0.092;2023-11-22T02:56:41;10.25;8.75;7.25
76784;PMS7003;66893;44.316;0.092;2023-11-22T02:59:07;10.00;8.25;7.00
76784;PMS7003;66893;44.316;0.092;2023-11-22T03:01:38;12.50;12.50;8.50
76784;PMS7003;66893;44.316;0.092;2023-11-22T03:04:04;9.50;8.75;6.75
76784;PMS7003;66893;44.316;0.092;2023-11-22T03:06:29;9.00;6.75;5.75
76784;PMS7003;66893;44.316;0.092;2023-11-22T03:08:55;7.75;5.75;3.75
76784;PMS7003;66893;44.316;0.092;2023-11-22T03:11:20;7.00;7.00;5.50
76784;PMS7003;66893;44.316;0.092;2023-11-22T03:13:47;6.75;6.75;5.00
76784;PMS7003;66893;44.316;0.092;2023-11-22T03:16:14;6.25;6.25;4.50
76784;PMS7003;66893;44.316;0.092;2023-11-22T03:18:39;7.50;7.50;4.75
76784;PMS7003;66893;44.316;0.092;2023-11-22T03:21:05;8.25;8.25;6.50
76784;PMS7003;66893;44.316;0.092;2023-11-22T03:23:30;9.50;8.75;6.25
76784;PMS7003;66893;44.316;0.092;2023-11-22T03:25:56;11.50;9.50;7.50
76784;PMS7003;66893;44.316;0.092;2023-11-22T03:28:22;7.75;7.25;5.00
76784;PMS7003;66893;44.316;0.092;2023-11-22T03:30:48;4.75;4.75;3.25
76784;PMS7003;66893;44.316;0.092;2023-11-22T03:33:13;8.00;8.00;7.25
76784;PMS7003;66893;44.316;0.092;2023-11-22T03:35:40;8.25;8.25;6.50
76784;PMS7003;66893;44.316;0.092;2023-11-22T03:38:06;6.50;6.50;5.00
76784;PMS7003;66893;44.316;0.092;2023-11-22T03:40:31;6.00;6.00;5.00
76784;PMS7003;66893;44.316;0.092;2023-11-22T03:42:57;5.00;5.00;4.75
76784;PMS7003;66893;44.316;0.092;2023-11-22T03:45:22;7.25;5.00;4.00
76784;PMS7003;66893;44.316;0.092;2023-11-22T03:47:47;4.25;4.25;3.75
76784;PMS7003;66893;44.316;0.092;2023-11-22T03:50:13;7.00;6.25;5.00
76784;PMS7003;66893;44.316;0.092;2023-11-22T03:52:39;7.75;7.75;4.75
76784;PMS7003;66893;44.316;0.092;2023-11-22T03:55:05;5.75;5.75;4.50
76784;PMS7003;66893;44.316;0.092;2023-11-22T03:57:30;7.75;7.50;5.50
76784;PMS7003;66893;44.316;0.092;2023-11-22T03:59:56;13.25;10.50;7.50
76784;PMS7003;66893;44.316;0.092;2023-11-22T04:02:21;6.75;6.25;5.50
76784;PMS7003;66893;44.316;0.092;2023-11-22T04:04:47;8.25;8.25;6.75
76784;PMS7003;66893;44.316;0.092;2023-11-22T04:07:12;11.50;8.75;6.25
76784;PMS7003;66893;44.316;0.092;2023-11-22T04:09:37;14.75;13.75;9.75
76784;PMS7003;66893;44.316;0.092;2023-11-22T04:12:03;12.25;11.75;9.75
76784;PMS7003;66893;44.316;0.092;2023-11-22T04:14:29;15.00;11.75;9.75
76784;PMS7003;66893;44.316;0.092;2023-11-22T04:16:54;16.00;15.50;11.50
76784;PMS7003;66893;44.316;0.092;2023-11-22T04:19:20;29.00;17.00;10.75
76784;PMS7003;66893;44.316;0.092;2023-11-22T04:21:46;20.50;18.00;12.50
76784;PMS7003;66893;44.316;0.092;2023-11-22T04:24:11;23.00;19.00;13.50
76784;PMS7003;66893;44.316;0.092;2023-11-22T04:26:37;21.00;18.00;15.00
76784;PMS7003;66893;44.316;0.092;2023-11-22T04:29:03;21.00;16.50;10.00
76784;PMS7003;66893;44.316;0.092;2023-11-22T04:31:29;20.25;19.75;12.75
76784;PMS7003;66893;44.316;0.092;2023-11-22T04:33:55;23.75;18.00;13.00
76784;PMS7003;66893;44.316;0.092;2023-11-22T04:36:22;20.25;17.25;12.00
76784;PMS7003;66893;44.316;0.092;2023-11-22T04:38:48;20.50;17.25;13.25
76784;PMS7003;66893;44.316;0.092;2023-11-22T04:41:14;19.75;16.75;12.00
76784;PMS7003;66893;44.316;0.092;2023-11-22T04:43:40;21.50;19.00;13.75
76784;PMS7003;66893;44.316;0.092;2023-11-22T04:46:07;24.25;21.25;14.00
76784;PMS7003;66893;44.316;0.092;2023-11-22T04:48:33;25.00;20.25;12.50
76784;PMS7003;66893;44.316;0.092;2023-11-22T04:50:59;24.00;20.00;13.50
76784;PMS7003;66893;44.316;0.092;2023-11-22T04:53:24;25.00;20.50;13.25
76784;PMS7003;66893;44.316;0.092;2023-11-22T04:55:50;15.75;14.25;11.50
76784;PMS7003;66893;44.316;0.092;2023-11-22T04:58:15;16.50;12.75;9.50
76784;PMS7003;66893;44.316;0.092;2023-11-22T05:00:40;7.25;7.25;6.25
76784;PMS7003;66893;44.316;0.092;2023-11-22T05:03:06;11.00;11.00;8.00
76784;PMS7003;66893;44.316;0.092;2023-11-22T05:05:31;10.00;9.50;7.75
76784;PMS7003;66893;44.316;0.092;2023-11-22T05:07:57;11.50;11.50;7.50
76784;PMS7003;66893;44.316;0.092;2023-11-22T05:10:22;11.50;9.00;6.50
76784;PMS7003;66893;44.316;0.092;2023-11-22T05:12:47;7.75;7.00;5.25
76784;PMS7003;66893;44.316;0.092;2023-11-22T05:15:13;8.50;8.50;6.50
76784;PMS7003;66893;44.316;0.092;2023-11-22T05:17:39;9.75;9.00;6.75
76784;PMS7003;66893;44.316;0.092;2023-11-22T05:20:05;9.50;7.50;5.50
76784;PMS7003;66893;44.316;0.092;2023-11-22T05:22:34;12.50;10.25;7.25
76784;PMS7003;66893;44.316;0.092;2023-11-22T05:25:00;9.50;9.00;5.75
76784;PMS7003;66893;44.316;0.092;2023-11-22T05:27:25;12.00;9.00;7.50
76784;PMS7003;66893;44.316;0.092;2023-11-22T05:29:51;12.50;12.50;7.25
76784;PMS7003;66893;44.316;0.092;2023-11-22T05:32:16;12.00;11.50;8.50
76784;PMS7003;66893;44.316;0.092;2023-11-22T05:34:42;15.50;15.00;8.75
76784;PMS7003;66893;44.316;0.092;2023-11-22T05:37:08;15.25;13.50;8.25
76784;PMS7003;66893;44.316;0.092;2023-11-22T05:39:34;14.75;12.00;8.50
76784;PMS7003;66893;44.316;0.092;2023-11-22T05:41:59;14.50;12.50;9.25
76784;PMS7003;66893;44.316;0.092;2023-11-22T05:44:25;14.25;14.25;9.75
76784;PMS7003;66893;44.316;0.092;2023-11-22T05:46:51;20.75;17.00;11.50
76784;PMS7003;66893;44.316;0.092;2023-11-22T05:49:17;18.75;15.00;12.25
76784;PMS7003;66893;44.316;0.092;2023-11-22T05:51:42;15.75;13.75;10.50
76784;PMS7003;66893;44.316;0.092;2023-11-22T05:54:08;16.25;16.25;10.50
76784;PMS7003;66893;44.316;0.092;2023-11-22T05:56:34;19.25;18.00;11.50
76784;PMS7003;66893;44.316;0.092;2023-11-22T05:58:59;14.00;13.25;9.25
76784;PMS7003;66893;44.316;0.092;2023-11-22T06:01:24;17.75;16.25;12.50
76784;PMS7003;66893;44.316;0.092;2023-11-22T06:03:51;19.75;15.50;11.25
76784;PMS7003;66893;44.316;0.092;2023-11-22T06:06:17;14.50;12.50;10.25
76784;PMS7003;66893;44.316;0.092;2023-11-22T06:08:42;17.75;14.50;9.75
76784;PMS7003;66893;44.316;0.092;2023-11-22T06:11:08;19.00;16.50;12.25
76784;PMS7003;66893;44.316;0.092;2023-11-22T06:13:33;20.25;17.75;11.75
76784;PMS7003;66893;44.316;0.092;2023-11-22T06:15:58;19.00;15.75;11.50
76784;PMS7003;66893;44.316;0.092;2023-11-22T06:18:24;18.50;16.00;9.00
76784;PMS7003;66893;44.316;0.092;2023-11-22T06:20:55;21.75;17.75;12.50
76784;PMS7003;66893;44.316;0.092;2023-11-22T06:23:21;22.50;21.25;15.25
76784;PMS7003;66893;44.316;0.092;2023-11-22T06:25:47;26.00;18.75;13.75
76784;PMS7003;66893;44.316;0.092;2023-11-22T06:28:12;22.25;19.75;15.50
76784;PMS7003;66893;44.316;0.092;2023-11-22T06:30:38;20.75;17.50;13.00
76784;PMS7003;66893;44.316;0.092;2023-11-22T06:33:03;29.00;23.25;15.75
76784;PMS7003;66893;44.316;0.092;2023-11-22T06:35:28;26.00;24.00;15.75
76784;PMS7003;66893;44.316;0.092;2023-11-22T06:37:54;25.00;22.50;15.00
76784;PMS7003;66893;44.316;0.092;2023-11-22T06:40:19;24.00;24.00;15.75
76784;PMS7003;66893;44.316;0.092;2023-11-22T06:42:48;24.00;23.25;16.00
76784;PMS7003;66893;44.316;0.092;2023-11-22T06:45:13;21.00;20.50;14.25
76784;PMS7003;66893;44.316;0.092;2023-11-22T06:47:39;27.25;26.00;17.50
76784;PMS7003;66893;44.316;0.092;2023-11-22T06:50:05;30.50;26.25;17.75
76784;PMS7003;66893;44.316;0.092;2023-11-22T06:52:37;30.00;26.25;18.50
76784;PMS7003;66893;44.316;0.092;2023-11-22T06:55:03;27.75;25.50;16.50
76784;PMS7003;66893;44.316;0.092;2023-11-22T06:57:29;25.75;23.50;14.50
76784;PMS7003;66893;44.316;0.092;2023-11-22T06:59:55;32.25;28.50;18.25
76784;PMS7003;66893;44.316;0.092;2023-11-22T07:02:21;29.00;26.25;18.50
76784;PMS7003;66893;44.316;0.092;2023-11-22T07:04:47;31.50;29.25;18.25
76784;PMS7003;66893;44.316;0.092;2023-11-22T07:07:12;28.00;24.00;17.25
76784;PMS7003;66893;44.316;0.092;2023-11-22T07:09:41;26.25;25.25;19.25
76784;PMS7003;66893;44.316;0.092;2023-11-22T07:12:07;27.75;25.75;17.25
76784;PMS7003;66893;44.316;0.092;2023-11-22T07:14:33;26.75;23.25;15.75
76784;PMS7003;66893;44.316;0.092;2023-11-22T07:16:59;21.25;19.25;13.25
76784;PMS7003;66893;44.316;0.092;2023-11-22T07:19:24;19.00;18.00;13.25
76784;PMS7003;66893;44.316;0.092;2023-11-22T07:21:50;20.75;19.50;13.25
76784;PMS7003;66893;44.316;0.092;2023-11-22T07:24:16;24.50;19.50;12.50
76784;PMS7003;66893;44.316;0.092;2023-11-22T07:26:43;20.25;16.75;11.50
76784;PMS7003;66893;44.316;0.092;2023-11-22T07:29:09;16.25;15.00;11.50
76784;PMS7003;66893;44.316;0.092;2023-11-22T07:31:34;15.25;13.50;11.00
76784;PMS7003;66893;44.316;0.092;2023-11-22T07:34:01;23.00;18.75;12.25
76784;PMS7003;66893;44.316;0.092;2023-11-22T07:36:29;16.00;15.75;12.75
76784;PMS7003;66893;44.316;0.092;2023-11-22T07:38:55;14.25;11.75;8.00
76784;PMS7003;66893;44.316;0.092;2023-11-22T07:41:21;17.25;14.50;10.75
76784;PMS7003;66893;44.316;0.092;2023-11-22T07:43:47;15.00;13.50;10.00
76784;PMS7003;66893;44.316;0.092;2023-11-22T07:46:13;11.25;10.25;7.75
76784;PMS7003;66893;44.316;0.092;2023-11-22T07:48:39;13.50;9.50;6.75
76784;PMS7003;66893;44.316;0.092;2023-11-22T07:51:06;11.75;9.50;7.75
76784;PMS7003;66893;44.316;0.092;2023-11-22T07:53:31;11.00;9.25;7.50
76784;PMS7003;66893;44.316;0.092;2023-11-22T07:55:59;13.00;11.75;7.50
76784;PMS7003;66893;44.316;0.092;2023-11-22T07:58:30;14.50;13.50;8.25
76784;PMS7003;66893;44.316;0.092;2023-11-22T08:00:57;15.25;12.75;9.50
76784;PMS7003;66893;44.316;0.092;2023-11-22T08:03:24;7.25;5.25;1.50
76784;PMS7003;66893;44.316;0.092;2023-11-22T08:05:50;18.00;14.00;10.50
76784;PMS7003;66893;44.316;0.092;2023-11-22T08:08:20;18.25;17.25;12.25
76784;PMS7003;66893;44.316;0.092;2023-11-22T08:10:49;15.75;15.75;12.50
76784;PMS7003;66893;44.316;0.092;2023-11-22T08:13:19;17.50;15.00;12.00
76784;PMS7003;66893;44.316;0.092;2023-11-22T08:15:50;22.75;20.25;14.00
76784;PMS7003;66893;44.316;0.092;2023-11-22T08:18:16;20.50;20.50;14.25
76784;PMS7003;66893;44.316;0.092;2023-11-22T08:20:44;25.00;19.25;14.50
76784;PMS7003;66893;44.316;0.092;2023-11-22T08:23:10;17.75;17.00;13.00
76784;PMS7003;66893;44.316;0.092;2023-11-22T08:25:37;18.75;16.50;11.25
76784;PMS7003;66893;44.316;0.092;2023-11-22T08:28:03;18.00;15.00;11.00
76784;PMS7003;66893;44.316;0.092;2023-11-22T08:30:29;18.00;15.50;9.50
76784;PMS7003;66893;44.316;0.092;2023-11-22T08:32:57;17.00;13.50;9.75
76784;PMS7003;66893;44.316;0.092;2023-11-22T08:35:23;12.50;12.25;10.25
76784;PMS7003;66893;44.316;0.092;2023-11-22T08:37:49;13.25;12.25;8.50
76784;PMS7003;66893;44.316;0.092;2023-11-22T08:40:15;13.00;12.25;8.75
76784;PMS7003;66893;44.316;0.092;2023-11-22T08:42:45;16.50;13.75;11.25
76784;PMS7003;66893;44.316;0.092;2023-11-22T08:45:13;15.75;14.00;10.25
76784;PMS7003;66893;44.316;0.092;2023-11-22T08:47:39;16.00;14.50;10.00
76784;PMS7003;66893;44.316;0.092;2023-11-22T08:50:06;17.25;14.75;10.00
76784;PMS7003;66893;44.316;0.092;2023-11-22T08:52:33;16.50;14.75;11.25
76784;PMS7003;66893;44.316;0.092;2023-11-22T08:54:59;20.25;18.00;12.25
76784;PMS7003;66893;44.316;0.092;2023-11-22T08:57:25;20.75;19.00;13.00
76784;PMS7003;66893;44.316;0.092;2023-11-22T08:59:51;23.50;18.50;11.00
76784;PMS7003;66893;44.316;0.092;2023-11-22T09:02:18;18.50;17.25;11.50
76784;PMS7003;66893;44.316;0.092;2023-11-22T09:04:47;21.00;20.25;14.25
76784;PMS7003;66893;44.316;0.092;2023-11-22T09:07:12;19.25;17.50;13.25
76784;PMS7003;66893;44.316;0.092;2023-11-22T09:09:39;17.50;17.25;11.50
76784;PMS7003;66893;44.316;0.092;2023-11-22T09:12:06;14.75;14.50;11.00
76784;PMS7003;66893;44.316;0.092;2023-11-22T09:14:37;19.25;17.50;11.50
76784;PMS7003;66893;44.316;0.092;2023-11-22T09:17:07;19.75;15.25;12.00
76784;PMS7003;66893;44.316;0.092;2023-11-22T09:19:34;19.00;19.00;14.00
76784;PMS7003;66893;44.316;0.092;2023-11-22T09:22:00;19.75;14.75;11.25
76784;PMS7003;66893;44.316;0.092;2023-11-22T09:24:26;19.50;19.25;15.00
76784;PMS7003;66893;44.316;0.092;2023-11-22T09:26:52;30.75;25.00;16.50
76784;PMS7003;66893;44.316;0.092;2023-11-22T09:29:17;32.75;26.75;18.25
76784;PMS7003;66893;44.316;0.092;2023-11-22T09:31:43;25.25;20.00;14.75
76784;PMS7003;66893;44.316;0.092;2023-11-22T09:34:11;26.75;24.00;16.00
76784;PMS7003;66893;44.316;0.092;2023-11-22T09:36:37;31.50;25.25;15.75
76784;PMS7003;66893;44.316;0.092;2023-11-22T09:39:03;26.75;23.00;16.00
76784;PMS7003;66893;44.316;0.092;2023-11-22T09:41:36;19.75;18.25;13.50
76784;PMS7003;66893;44.316;0.092;2023-11-22T09:44:02;18.75;18.00;12.75
76784;PMS7003;66893;44.316;0.092;2023-11-22T09:46:29;17.00;16.50;12.50
76784;PMS7003;66893;44.316;0.092;2023-11-22T09:48:56;19.00;18.00;13.50
76784;PMS7003;66893;44.316;0.092;2023-11-22T09:51:31;17.25;16.75;12.00
76784;PMS7003;66893;44.316;0.092;2023-11-22T09:53:58;24.00;21.25;14.75
76784;PMS7003;66893;44.316;0.092;2023-11-22T09:56:29;23.00;19.00;13.50
76784;PMS7003;66893;44.316;0.092;2023-11-22T09:58:56;14.00;10.75;8.00
76784;PMS7003;66893;44.316;0.092;2023-11-22T10:01:25;22.00;18.00;12.50
76784;PMS7003;66893;44.316;0.092;2023-11-22T10:03:52;20.25;16.75;12.50
76784;PMS7003;66893;44.316;0.092;2023-11-22T10:06:20;18.50;17.25;13.25
76784;PMS7003;66893;44.316;0.092;2023-11-22T10:08:46;23.50;22.50;16.50
76784;PMS7003;66893;44.316;0.092;2023-11-22T10:11:17;20.75;18.50;14.00
76784;PMS7003;66893;44.316;0.092;2023-11-22T10:13:43;20.25;19.25;12.75
76784;PMS7003;66893;44.316;0.092;2023-11-22T10:16:12;17.50;17.00;12.75
76784;PMS7003;66893;44.316;0.092;2023-11-22T10:18:47;21.50;16.25;10.75
76784;PMS7003;66893;44.316;0.092;2023-11-22T10:23:46;22.50;19.50;12.75
76784;PMS7003;66893;44.316;0.092;2023-11-22T10:26:12;16.75;15.25;13.00
76784;PMS7003;66893;44.316;0.092;2023-11-22T10:28:41;19.00;18.50;13.00
76784;PMS7003;66893;44.316;0.092;2023-11-22T10:31:08;20.25;18.00;11.50
76784;PMS7003;66893;44.316;0.092;2023-11-22T10:33:38;25.50;22.75;17.00
76784;PMS7003;66893;44.316;0.092;2023-11-22T10:36:13;14.00;12.75;9.75
76784;PMS7003;66893;44.316;0.092;2023-11-22T10:38:40;18.25;16.75;12.50
76784;PMS7003;66893;44.316;0.092;2023-11-22T10:41:07;15.75;15.25;12.25
76784;PMS7003;66893;44.316;0.092;2023-11-22T10:43:37;18.00;16.75;12.00
76784;PMS7003;66893;44.316;0.092;2023-11-22T10:46:02;20.25;19.00;11.00
76784;PMS7003;66893;44.316;0.092;2023-11-22T10:48:30;17.75;16.50;11.25
76784;PMS7003;66893;44.316;0.092;2023-11-22T10:50:57;24.00;24.00;14.00
76784;PMS7003;66893;44.316;0.092;2023-11-22T10:53:35;19.50;18.50;13.00
76784;PMS7003;66893;44.316;0.092;2023-11-22T10:56:04;21.00;15.50;11.50
76784;PMS7003;66893;44.316;0.092;2023-11-22T10:58:31;18.50;16.00;11.00
76784;PMS7003;66893;44.316;0.092;2023-11-22T11:00:57;19.50;16.75;13.25
76784;PMS7003;66893;44.316;0.092;2023-11-22T11:03:23;14.00;14.00;9.50
76784;PMS7003;66893;44.316;0.092;2023-11-22T11:05:58;12.50;12.50;10.00
76784;PMS7003;66893;44.316;0.092;2023-11-22T11:08:29;17.50;14.00;9.50
76784;PMS7003;66893;44.316;0.092;2023-11-22T11:10:55;12.50;10.75;9.25
76784;PMS7003;66893;44.316;0.092;2023-11-22T11:13:23;12.00;10.75;8.25
76784;PMS7003;66893;44.316;0.092;2023-11-22T11:15:48;11.00;9.00;6.50
76784;PMS7003;66893;44.316;0.092;2023-11-22T11:18:15;10.75;9.75;8.75
76784;PMS7003;66893;44.316;0.092;2023-11-22T11:20:49;10.25;8.25;6.75
76784;PMS7003;66893;44.316;0.092;2023-11-22T11:23:28;9.75;7.00;4.75
76784;PMS7003;66893;44.316;0.092;2023-11-22T11:25:56;6.00;5.75;4.00
76784;PMS7003;66893;44.316;0.092;2023-11-22T11:28:24;8.50;6.25;5.00
76784;PMS7003;66893;44.316;0.092;2023-11-22T11:30:51;5.25;4.50;3.75
76784;PMS7003;66893;44.316;0.092;2023-11-22T11:33:27;4.00;4.00;3.50
76784;PMS7003;66893;44.316;0.092;2023-11-22T11:35:58;5.50;5.00;4.00
76784;PMS7003;66893;44.316;0.092;2023-11-22T11:38:32;11.00;8.50;4.75
76784;PMS7003;66893;44.316;0.092;2023-11-22T11:41:12;7.25;6.75;4.75
76784;PMS7003;66893;44.316;0.092;2023-11-22T11:43:47;9.75;8.00;6.00
76784;PMS7003;66893;44.316;0.092;2023-11-22T11:46:14;3.00;3.00;2.00
76784;PMS7003;66893;44.316;0.092;2023-11-22T11:48:43;4.00;2.00;2.00
76784;PMS7003;66893;44.316;0.092;2023-11-22T11:51:19;4.00;3.25;2.25
76784;PMS7003;66893;44.316;0.092;2023-11-22T11:53:47;3.00;3.00;2.00
76784;PMS7003;66893;44.316;0.092;2023-11-22T11:56:14;3.00;3.00;2.00
76784;PMS7003;66893;44.316;0.092;2023-11-22T11:58:43;5.25;3.75;2.75
76784;PMS7003;66893;44.316;0.092;2023-11-22T12:01:12;3.00;3.00;2.75
76784;PMS7003;66893;44.316;0.092;2023-11-22T12:03:38;4.00;4.00;3.00
76784;PMS7003;66893;44.316;0.092;2023-11-22T12:06:07;3.00;3.00;2.00
76784;PMS7003;66893;44.316;0.092;2023-11-22T12:08:33;2.25;2.00;2.00
76784;PMS7003;66893;44.316;0.092;2023-11-22T12:11:04;3.50;3.50;3.00
76784;PMS7003;66893;44.316;0.092;2023-11-22T12:13:35;3.00;3.00;2.75
76784;PMS7003;66893;44.316;0.092;2023-11-22T12:16:06;2.00;2.00;2.00
76784;PMS7003;66893;44.316;0.092;2023-11-22T12:18:39;5.00;4.00;2.25
76784;PMS7003;66893;44.316;0.092;2023-11-22T12:21:08;4.50;3.25;2.00
76784;PMS7003;66893;44.316;0.092;2023-11-22T12:23:41;3.00;3.00;2.25
76784;PMS7003;66893;44.316;0.092;2023-11-22T12:26:17;2.75;2.00;1.75
76784;PMS7003;66893;44.316;0.092;2023-11-22T12:28:45;2.00;2.00;1.00
76784;PMS7003;66893;44.316;0.092;2023-11-22T12:31:13;1.50;1.50;1.00
76784;PMS7003;66893;44.316;0.092;2023-11-22T12:33:40;2.00;2.00;1.50
76784;PMS7003;66893;44.316;0.092;2023-11-22T12:36:06;2.25;1.00;1.00
76784;PMS7003;66893;44.316;0.092;2023-11-22T12:38:34;3.00;2.00;1.25
76784;PMS7003;66893;44.316;0.092;2023-11-22T12:41:00;1.00;1.00;1.00
76784;PMS7003;66893;44.316;0.092;2023-11-22T12:43:28;1.75;1.75;1.00
76784;PMS7003;66893;44.316;0.092;2023-11-22T12:46:06;2.50;2.50;2.00
76784;PMS7003;66893;44.316;0.092;2023-11-22T12:48:33;7.50;7.50;4.25
76784;PMS7003;66893;44.316;0.092;2023-11-22T12:50:59;3.25;3.00;3.00
76784;PMS7003;66893;44.316;0.092;2023-11-22T12:53:26;4.00;2.00;2.00
76784;PMS7003;66893;44.316;0.092;2023-11-22T12:55:55;2.00;2.00;1.00
76784;PMS7003;66893;44.316;0.092;2023-11-22T12:58:22;0.00;0.00;0.00
76784;PMS7003;66893;44.316;0.092;2023-11-22T13:00:49;0.50;0.25;0.25
76784;PMS7003;66893;44.316;0.092;2023-11-22T13:03:19;0.00;0.00;0.00
76784;PMS7003;66893;44.316;0.092;2023-11-22T13:05:45;1.00;1.00;1.00
76784;PMS7003;66893;44.316;0.092;2023-11-22T13:08:11;3.00;0.00;0.00
76784;PMS7003;66893;44.316;0.092;2023-11-22T13:10:44;0.00;0.00;0.00
76784;PMS7003;66893;44.316;0.092;2023-11-22T13:13:19;0.00;0.00;0.00
76784;PMS7003;66893;44.316;0.092;2023-11-22T13:15:47;5.00;5.00;4.00
76784;PMS7003;66893;44.316;0.092;2023-11-22T13:18:14;3.50;3.00;3.00
76784;PMS7003;66893;44.316;0.092;2023-11-22T13:20:41;8.75;7.25;6.00
76784;PMS7003;66893;44.316;0.092;2023-11-22T13:23:08;5.25;3.00;2.00
76784;PMS7003;66893;44.316;0.092;2023-11-22T13:25:33;2.00;2.00;1.75
76784;PMS7003;66893;44.316;0.092;2023-11-22T13:27:59;2.00;1.50;1.00
76784;PMS7003;66893;44.316;0.092;2023-11-22T13:30:25;3.00;3.00;2.00
76784;PMS7003;66893;44.316;0.092;2023-11-22T13:32:55;3.25;3.25;3.00
76784;PMS7003;66893;44.316;0.092;2023-11-22T13:35:24;2.00;2.00;1.25
76784;PMS7003;66893;44.316;0.092;2023-11-22T13:37:59;1.50;1.50;1.00
76784;PMS7003;66893;44.316;0.092;2023-11-22T13:40:26;1.25;1.25;1.00
76784;PMS7003;66893;44.316;0.092;2023-11-22T13:42:55;1.25;1.25;0.50
76784;PMS7003;66893;44.316;0.092;2023-11-22T13:45:21;1.00;1.00;1.00
76784;PMS7003;66893;44.316;0.092;2023-11-22T13:47:48;0.00;0.00;0.00
76784;PMS7003;66893;44.316;0.092;2023-11-22T13:50:20;1.00;1.00;1.00
76784;PMS7003;66893;44.316;0.092;2023-11-22T13:52:49;2.75;2.75;2.00
76784;PMS7003;66893;44.316;0.092;2023-11-22T13:55:15;1.00;1.00;1.00
76784;PMS7003;66893;44.316;0.092;2023-11-22T13:57:44;1.50;1.50;1.00
76784;PMS7003;66893;44.316;0.092;2023-11-22T14:00:10;1.00;1.00;1.00
76784;PMS7003;66893;44.316;0.092;2023-11-22T14:02:38;2.00;2.00;1.00